createdAt,value
2023-05-12T00:00:08.561Z,1008.59
2023-05-12T00:01:08.557Z,1008.59
2023-05-12T00:02:08.804Z,1008.54
2023-05-12T00:03:08.714Z,1008.60
2023-05-12T00:05:08.675Z,1008.57
2023-05-12T00:06:08.700Z,1008.57
2023-05-12T00:07:08.724Z,1008.59
2023-05-12T00:08:08.764Z,1008.58
2023-05-12T00:09:08.785Z,1008.56
2023-05-12T00:10:08.806Z,1008.58
2023-05-12T00:11:08.834Z,1008.56
2023-05-12T00:12:08.865Z,1008.56
2023-05-12T00:13:08.892Z,1008.56
2023-05-12T00:14:08.914Z,1008.56
2023-05-12T00:15:08.945Z,1008.55
2023-05-12T00:16:09.046Z,1008.60
2023-05-12T00:17:09.001Z,1008.56
2023-05-12T00:18:09.042Z,1008.57
2023-05-12T00:19:09.109Z,1008.55
2023-05-12T00:20:09.092Z,1008.58
2023-05-12T00:21:09.111Z,1008.59
2023-05-12T00:22:09.151Z,1008.60
2023-05-12T00:23:09.165Z,1008.56
2023-05-12T00:24:09.204Z,1008.60
2023-05-12T00:25:09.245Z,1008.56
2023-05-12T00:26:09.250Z,1008.59
2023-05-12T00:27:09.274Z,1008.63
2023-05-12T00:28:09.315Z,1008.60
2023-05-12T00:29:09.333Z,1008.63
2023-05-12T00:30:09.373Z,1008.62
2023-05-12T00:31:09.441Z,1008.59
2023-05-12T00:32:09.440Z,1008.55
2023-05-12T00:33:09.446Z,1008.59
2023-05-12T00:50:11.257Z,1008.46
2023-05-12T00:59:10.685Z,1008.44
2023-05-12T01:07:10.644Z,1008.38
2023-05-12T01:08:10.860Z,1008.41
2023-05-12T01:09:11.073Z,1008.38
2023-05-12T01:10:10.688Z,1008.39
2023-05-12T01:11:10.510Z,1008.40
2023-05-12T01:12:10.542Z,1008.39
2023-05-12T01:13:10.765Z,1008.37
2023-05-12T01:15:10.840Z,1008.30
2023-05-12T01:19:11.677Z,1008.10
2023-05-12T01:21:11.707Z,1008.00
2023-05-12T01:23:10.890Z,1007.99
2023-05-12T01:24:11.101Z,1008.03
2023-05-12T01:25:10.918Z,1008.04
2023-05-12T01:26:10.940Z,1008.03
2023-05-12T01:28:11.511Z,1008.03
2023-05-12T01:30:11.061Z,1008.01
2023-05-12T01:31:11.453Z,1008.00
2023-05-12T01:35:11.411Z,1008.11
2023-05-12T01:39:11.512Z,1008.12
2023-05-12T01:40:11.337Z,1008.06
2023-05-12T01:42:11.403Z,1008.05
2023-05-12T01:43:11.627Z,1008.05
2023-05-12T01:46:11.587Z,1008.05
2023-05-12T01:49:37.383Z,1008.03
2023-05-12T01:50:37.416Z,1008.05
2023-05-12T01:51:37.449Z,1008.09
2023-05-12T01:52:37.488Z,1008.03
2023-05-12T01:53:37.780Z,1008.06
2023-05-12T01:54:37.607Z,1008.01
2023-05-12T01:55:37.760Z,1008.05
2023-05-12T01:56:37.591Z,1008.07
2023-05-12T01:57:37.622Z,1008.05
2023-05-12T01:58:37.659Z,1008.06
2023-05-12T01:59:37.698Z,1008.08
2023-05-12T02:00:37.692Z,1008.07
2023-05-12T02:01:37.723Z,1008.03
2023-05-12T02:02:38.583Z,1008.08
2023-05-12T02:03:37.927Z,1008.06
2023-05-12T02:04:37.865Z,1008.06
2023-05-12T02:05:37.928Z,1008.10
2023-05-12T02:06:38.058Z,1008.09
2023-05-12T02:07:38.090Z,1008.06
2023-05-12T02:09:40.528Z,1008.10
2023-05-12T02:10:40.532Z,1008.12
2023-05-12T02:11:40.554Z,1008.08
2023-05-12T02:12:40.844Z,1008.11
2023-05-12T02:13:40.627Z,1008.09
2023-05-12T02:14:40.964Z,1008.08
2023-05-12T02:15:40.682Z,1008.10
2023-05-12T02:16:40.992Z,1008.08
2023-05-12T02:17:40.961Z,1008.06
2023-05-12T02:18:40.782Z,1008.03
2023-05-12T02:19:41.391Z,1008.07
2023-05-12T02:20:41.231Z,1008.08
2023-05-12T02:21:41.082Z,1008.08
2023-05-12T02:22:40.879Z,1008.08
2023-05-12T02:24:41.134Z,1008.07
2023-05-12T02:26:41.044Z,1008.10
2023-05-12T02:28:41.059Z,1008.15
2023-05-12T02:32:41.384Z,1008.11
2023-05-12T02:33:41.804Z,1008.13
2023-05-12T02:34:41.423Z,1008.09
2023-05-12T02:37:41.302Z,1008.08
2023-05-12T02:38:42.636Z,1008.05
2023-05-12T02:39:41.563Z,1008.09
2023-05-12T02:40:42.710Z,1008.10
2023-05-12T02:41:42.529Z,1008.07
2023-05-12T02:42:42.173Z,1008.05
2023-05-12T02:43:41.469Z,1008.06
2023-05-12T02:44:41.705Z,1008.03
2023-05-12T02:45:42.246Z,1008.04
2023-05-12T02:46:41.561Z,1008.07
2023-05-12T02:50:41.671Z,1008.09
2023-05-12T02:51:41.921Z,1008.07
2023-05-12T02:56:41.842Z,1008.09
2023-05-12T02:59:54.524Z,1008.10
2023-05-12T03:01:06.716Z,1008.11
2023-05-12T03:01:54.585Z,1008.05
2023-05-12T03:02:54.711Z,1008.01
2023-05-12T03:04:47.184Z,1007.96
2023-05-12T03:05:47.235Z,1007.95
2023-05-12T03:08:47.307Z,1007.94
2023-05-12T03:09:47.544Z,1007.89
2023-05-12T03:14:47.682Z,1008.07
2023-05-12T03:16:49.417Z,1008.01
2023-05-12T03:19:48.515Z,1008.03
2023-05-12T03:32:48.107Z,1007.92
2023-05-12T03:39:49.897Z,1008.00
2023-05-12T03:44:48.324Z,1007.97
2023-05-12T04:02:49.137Z,1008.01
2023-05-12T04:11:49.622Z,1008.06
2023-05-12T04:14:49.357Z,1008.09
2023-05-12T04:22:49.578Z,1008.19
2023-05-12T04:27:50.449Z,1008.22
2023-05-12T04:32:50.998Z,1008.28
2023-05-12T04:33:50.494Z,1008.29
2023-05-12T04:38:50.735Z,1008.32
2023-05-12T04:57:51.680Z,1008.51
2023-05-12T05:13:50.830Z,1008.73
2023-05-12T05:16:52.184Z,1008.80
2023-05-12T05:18:55.548Z,1008.84
2023-05-12T05:26:00.203Z,1008.84
2023-05-12T05:27:00.239Z,1008.88
2023-05-12T05:28:00.259Z,1008.90
2023-05-12T05:29:02.945Z,1008.91
2023-05-12T05:30:00.314Z,1008.94
2023-05-12T05:32:50.522Z,1008.94
2023-05-12T05:33:50.785Z,1008.90
2023-05-12T05:34:50.559Z,1009.01
2023-05-12T05:35:51.798Z,1008.90
2023-05-12T05:36:50.638Z,1008.92
2023-05-12T05:37:50.636Z,1008.98
2023-05-12T05:38:50.663Z,1008.97
2023-05-12T05:39:50.694Z,1008.94
2023-05-12T05:40:53.884Z,1008.95
2023-05-12T05:41:50.751Z,1008.98
2023-05-12T05:42:50.778Z,1009.01
2023-05-12T05:43:50.810Z,1009.03
2023-05-12T05:44:50.856Z,1009.04
2023-05-12T05:45:50.872Z,1009.03
2023-05-12T05:46:50.937Z,1009.07
2023-05-12T05:47:50.949Z,1009.09
2023-05-12T05:49:38.499Z,1009.08
2023-05-12T05:51:51.150Z,1009.09
2023-05-12T05:52:51.221Z,1009.14
2023-05-12T05:53:51.236Z,1009.10
2023-05-12T05:56:41.402Z,1009.15
2023-05-12T05:57:41.418Z,1009.21
2023-05-12T05:58:42.250Z,1009.23
2023-05-12T05:59:42.078Z,1009.20
2023-05-12T06:00:41.640Z,1009.23
2023-05-12T06:01:41.543Z,1009.25
2023-05-12T06:02:41.735Z,1009.24
2023-05-12T06:03:41.669Z,1009.27
2023-05-12T06:04:41.601Z,1009.27
2023-05-12T06:05:41.633Z,1009.27
2023-05-12T06:06:41.660Z,1009.29
2023-05-12T06:07:41.695Z,1009.32
2023-05-12T06:08:41.713Z,1009.32
2023-05-12T06:09:41.741Z,1009.30
2023-05-12T06:10:41.770Z,1009.32
2023-05-12T06:11:41.798Z,1009.37
2023-05-12T06:12:41.829Z,1009.35
2023-05-12T06:13:41.854Z,1009.38
2023-05-12T06:14:41.896Z,1009.44
2023-05-12T06:15:41.910Z,1009.45
2023-05-12T06:16:42.018Z,1009.44
2023-05-12T06:17:41.986Z,1009.39
2023-05-12T06:18:42.224Z,1009.37
2023-05-12T06:19:42.027Z,1009.45
2023-05-12T06:20:42.070Z,1009.44
2023-05-12T06:21:42.088Z,1009.47
2023-05-12T06:22:42.118Z,1009.47
2023-05-12T06:23:42.142Z,1009.46
2023-05-12T06:24:42.395Z,1009.46
2023-05-12T06:27:42.279Z,1009.41
2023-05-12T06:28:42.294Z,1009.48
2023-05-12T06:29:42.336Z,1009.51
2023-05-12T06:30:42.373Z,1009.49
2023-05-12T06:31:42.406Z,1009.52
2023-05-12T06:32:42.476Z,1009.46
2023-05-12T06:33:42.453Z,1009.46
2023-05-12T06:34:42.485Z,1009.46
2023-05-12T06:35:42.526Z,1009.53
2023-05-12T06:36:43.059Z,1009.60
2023-05-12T06:37:42.594Z,1009.52
2023-05-12T06:38:42.818Z,1009.50
2023-05-12T06:39:42.647Z,1009.54
2023-05-12T06:40:43.385Z,1009.59
2023-05-12T06:41:42.705Z,1009.58
2023-05-12T06:42:42.736Z,1009.56
2023-05-12T06:43:42.777Z,1009.52
2023-05-12T06:45:43.020Z,1009.53
2023-05-12T06:46:42.925Z,1009.61
2023-05-12T06:47:42.904Z,1009.49
2023-05-12T06:48:42.933Z,1009.55
2023-05-12T06:49:42.937Z,1009.52
2023-05-12T06:50:42.970Z,1009.56
2023-05-12T06:51:43.001Z,1009.57
2023-05-12T06:52:43.048Z,1009.55
2023-05-12T06:53:43.076Z,1009.55
2023-05-12T06:54:43.091Z,1009.56
2023-05-12T06:55:43.123Z,1009.57
2023-05-12T06:56:43.171Z,1009.64
2023-05-12T06:57:43.419Z,1009.64
2023-05-12T06:58:43.233Z,1009.69
2023-05-12T06:59:43.270Z,1009.69
2023-05-12T07:00:43.289Z,1009.70
2023-05-12T07:01:43.425Z,1009.71
2023-05-12T07:02:43.608Z,1009.76
2023-05-12T07:03:43.706Z,1009.73
2023-05-12T07:04:43.425Z,1009.71
2023-05-12T07:05:43.489Z,1009.68
2023-05-12T07:06:43.474Z,1009.70
2023-05-12T07:07:44.093Z,1009.74
2023-05-12T07:08:43.523Z,1009.70
2023-05-12T07:09:43.551Z,1009.68
2023-05-12T07:10:45.196Z,1009.75
2023-05-12T07:11:43.610Z,1009.72
2023-05-12T07:12:43.642Z,1009.72
2023-05-12T07:13:43.673Z,1009.74
2023-05-12T07:14:43.903Z,1009.76
2023-05-12T07:15:43.769Z,1009.75
2023-05-12T07:16:43.767Z,1009.77
2023-05-12T07:17:43.847Z,1009.70
2023-05-12T07:18:43.895Z,1009.71
2023-05-12T07:19:43.857Z,1009.67
2023-05-12T07:20:43.930Z,1009.69
2023-05-12T07:21:44.136Z,1009.73
2023-05-12T07:22:43.948Z,1009.72
2023-05-12T07:23:43.986Z,1009.80
2023-05-12T07:24:44.033Z,1009.77
2023-05-12T07:25:44.445Z,1009.79
2023-05-12T07:26:44.088Z,1009.80
2023-05-12T07:27:44.109Z,1009.86
2023-05-12T07:28:44.334Z,1009.87
2023-05-12T07:29:44.378Z,1009.92
2023-05-12T07:30:44.211Z,1009.90
2023-05-12T07:31:44.287Z,1009.90
2023-05-12T07:32:44.311Z,1009.92
2023-05-12T07:34:44.535Z,1009.88
2023-05-12T07:35:44.361Z,1009.87
2023-05-12T07:36:44.480Z,1009.89
2023-05-12T07:37:44.425Z,1009.91
2023-05-12T07:39:44.677Z,1009.93
2023-05-12T07:40:44.712Z,1009.93
2023-05-12T07:41:44.538Z,1009.96
2023-05-12T07:42:44.585Z,1009.97
2023-05-12T07:43:44.610Z,1009.94
2023-05-12T07:44:45.146Z,1009.97
2023-05-12T07:45:45.266Z,1010.00
2023-05-12T07:46:44.728Z,1009.94
2023-05-12T07:47:44.758Z,1009.97
2023-05-12T07:48:44.754Z,1009.97
2023-05-12T07:49:44.782Z,1009.96
2023-05-12T07:50:44.805Z,1010.00
2023-05-12T07:51:45.047Z,1010.01
2023-05-12T07:52:45.083Z,1010.03
2023-05-12T07:53:45.207Z,1010.02
2023-05-12T07:54:45.541Z,1009.97
2023-05-12T07:55:44.957Z,1010.01
2023-05-12T07:56:45.230Z,1010.04
2023-05-12T07:57:45.022Z,1010.06
2023-05-12T07:58:47.368Z,1010.07
2023-05-12T07:59:45.082Z,1010.05
2023-05-12T08:00:45.112Z,1010.05
2023-05-12T08:02:45.573Z,1010.16
2023-05-12T08:03:45.264Z,1010.16
2023-05-12T08:04:45.241Z,1010.12
2023-05-12T08:06:45.706Z,1010.13
2023-05-12T08:08:45.360Z,1010.12
2023-05-12T08:09:45.587Z,1010.06
2023-05-12T08:10:45.398Z,1010.21
2023-05-12T08:11:48.107Z,1010.14
2023-05-12T08:12:45.473Z,1010.17
2023-05-12T08:13:45.512Z,1010.15
2023-05-12T08:14:46.070Z,1010.11
2023-05-12T08:15:45.773Z,1010.20
2023-05-12T08:16:45.649Z,1010.19
2023-05-12T08:17:45.657Z,1010.15
2023-05-12T08:18:45.695Z,1010.22
2023-05-12T08:19:45.673Z,1010.19
2023-05-12T08:20:45.718Z,1010.16
2023-05-12T08:21:45.732Z,1010.19
2023-05-12T08:22:45.760Z,1010.15
2023-05-12T08:23:45.797Z,1010.13
2023-05-12T08:24:45.848Z,1010.14
2023-05-12T08:26:58.898Z,1010.19
2023-05-12T08:27:58.512Z,1010.27
2023-05-12T08:28:58.533Z,1010.26
2023-05-12T08:31:21.284Z,1010.18
2023-05-12T08:32:21.370Z,1010.25
2023-05-12T08:33:21.329Z,1010.23
2023-05-12T08:34:21.358Z,1010.23
2023-05-12T08:35:21.593Z,1010.21
2023-05-12T08:36:21.426Z,1010.24
2023-05-12T08:37:21.447Z,1010.25
2023-05-12T08:38:21.478Z,1010.27
2023-05-12T08:39:21.508Z,1010.28
2023-05-12T08:40:21.631Z,1010.27
2023-05-12T08:41:21.561Z,1010.34
2023-05-12T08:42:21.601Z,1010.32
2023-05-12T08:43:24.259Z,1010.35
2023-05-12T08:44:21.653Z,1010.33
2023-05-12T08:45:22.262Z,1010.33
2023-05-12T08:46:21.792Z,1010.34
2023-05-12T08:47:21.729Z,1010.31
2023-05-12T08:49:04.717Z,1010.41
2023-05-12T08:50:04.731Z,1010.41
2023-05-12T08:51:04.753Z,1010.43
2023-05-12T08:52:04.789Z,1010.47
2023-05-12T08:53:04.803Z,1010.41
2023-05-12T08:54:05.442Z,1010.47
2023-05-12T08:55:05.103Z,1010.41
2023-05-12T08:57:09.626Z,1010.49
2023-05-12T08:58:04.956Z,1010.41
2023-05-12T08:59:08.209Z,1010.43
2023-05-12T09:00:05.103Z,1010.42
2023-05-12T09:01:05.084Z,1010.42
2023-05-12T09:02:05.132Z,1010.46
2023-05-12T09:03:05.157Z,1010.47
2023-05-12T09:04:05.171Z,1010.47
2023-05-12T09:05:05.164Z,1010.48
2023-05-12T09:06:05.199Z,1010.45
2023-05-12T09:07:05.233Z,1010.44
2023-05-12T09:08:05.258Z,1010.50
2023-05-12T09:09:05.296Z,1010.49
2023-05-12T09:10:05.322Z,1010.49
2023-05-12T09:11:05.371Z,1010.44
2023-05-12T09:12:05.493Z,1010.47
2023-05-12T09:13:05.431Z,1010.50
2023-05-12T09:14:05.448Z,1010.42
2023-05-12T09:15:05.475Z,1010.46
2023-05-12T09:16:05.528Z,1010.46
2023-05-12T09:17:05.547Z,1010.53
2023-05-12T09:18:05.606Z,1010.52
2023-05-12T09:19:07.232Z,1010.52
2023-05-12T09:20:05.636Z,1010.50
2023-05-12T09:21:05.662Z,1010.50
2023-05-12T09:22:05.698Z,1010.50
2023-05-12T09:23:05.726Z,1010.48
2023-05-12T09:24:05.764Z,1010.45
2023-05-12T09:25:05.815Z,1010.49
2023-05-12T09:26:05.826Z,1010.53
2023-05-12T09:27:05.855Z,1010.55
2023-05-12T09:28:05.964Z,1010.45
2023-05-12T09:29:05.918Z,1010.46
2023-05-12T09:30:05.950Z,1010.48
2023-05-12T09:31:06.054Z,1010.53
2023-05-12T09:32:06.037Z,1010.54
2023-05-12T09:33:06.090Z,1010.54
2023-05-12T09:34:06.083Z,1010.57
2023-05-12T09:35:06.104Z,1010.56
2023-05-12T09:36:06.138Z,1010.54
2023-05-12T09:37:06.169Z,1010.49
2023-05-12T09:38:06.222Z,1010.50
2023-05-12T09:39:06.231Z,1010.54
2023-05-12T09:40:06.264Z,1010.52
2023-05-12T09:41:06.294Z,1010.50
2023-05-12T09:42:06.331Z,1010.53
2023-05-12T09:43:06.357Z,1010.52
2023-05-12T09:44:06.702Z,1010.48
2023-05-12T09:45:06.416Z,1010.55
2023-05-12T09:46:06.490Z,1010.60
2023-05-12T09:47:06.486Z,1010.58
2023-05-12T09:48:06.546Z,1010.55
2023-05-12T09:49:06.544Z,1010.57
2023-05-12T09:50:06.588Z,1010.69
2023-05-12T09:51:06.604Z,1010.63
2023-05-12T09:52:06.653Z,1010.60
2023-05-12T09:53:06.674Z,1010.66
2023-05-12T09:54:08.039Z,1010.60
2023-05-12T09:55:06.733Z,1010.66
2023-05-12T09:56:06.769Z,1010.61
2023-05-12T09:57:06.796Z,1010.65
2023-05-12T09:58:06.824Z,1010.59
2023-05-12T09:59:06.874Z,1010.61
2023-05-12T10:00:16.982Z,1010.59
2023-05-12T10:01:50.601Z,1010.67
2023-05-12T10:02:50.628Z,1010.72
2023-05-12T10:03:50.613Z,1010.68
2023-05-12T10:04:50.697Z,1010.55
2023-05-12T10:05:50.678Z,1010.61
2023-05-12T10:06:50.707Z,1010.63
2023-05-12T10:07:50.739Z,1010.44
2023-05-12T10:08:50.779Z,1010.45
2023-05-12T10:09:50.803Z,1010.46
2023-05-12T10:10:50.854Z,1010.45
2023-05-12T10:11:53.529Z,1010.40
2023-05-12T10:12:50.905Z,1010.36
2023-05-12T10:13:50.936Z,1010.40
2023-05-12T10:14:50.974Z,1010.39
2023-05-12T10:15:51.039Z,1010.40
2023-05-12T10:16:51.082Z,1010.40
2023-05-12T10:17:53.724Z,1010.37
2023-05-12T10:18:51.249Z,1010.44
2023-05-12T10:19:51.148Z,1010.46
2023-05-12T10:20:51.182Z,1010.34
2023-05-12T10:21:51.199Z,1010.37
2023-05-12T10:22:51.234Z,1010.39
2023-05-12T10:23:51.312Z,1010.39
2023-05-12T10:24:51.301Z,1010.40
2023-05-12T10:25:51.339Z,1010.47
2023-05-12T10:26:51.392Z,1010.43
2023-05-12T10:27:51.398Z,1010.41
2023-05-12T10:28:51.448Z,1010.36
2023-05-12T10:29:53.524Z,1010.51
2023-05-12T10:30:51.500Z,1010.46
2023-05-12T10:31:51.585Z,1010.42
2023-05-12T10:32:51.625Z,1010.43
2023-05-12T10:33:51.617Z,1010.39
2023-05-12T10:34:51.867Z,1010.52
2023-05-12T10:35:51.983Z,1010.42
2023-05-12T10:36:51.698Z,1010.41
2023-05-12T10:37:51.742Z,1010.37
2023-05-12T10:38:51.786Z,1010.39
2023-05-12T10:39:51.798Z,1010.47
2023-05-12T10:40:51.846Z,1010.38
2023-05-12T10:41:52.751Z,1010.34
2023-05-12T10:42:51.906Z,1010.39
2023-05-12T10:43:51.923Z,1010.46
2023-05-12T10:44:51.978Z,1010.44
2023-05-12T10:45:52.244Z,1010.44
2023-05-12T10:46:52.153Z,1010.38
2023-05-12T10:47:52.221Z,1010.35
2023-05-12T10:48:52.089Z,1010.34
2023-05-12T10:49:52.648Z,1010.34
2023-05-12T10:50:52.156Z,1010.47
2023-05-12T10:51:52.195Z,1010.39
2023-05-12T10:52:52.544Z,1010.30
2023-05-12T10:53:54.613Z,1010.35
2023-05-12T10:54:52.286Z,1010.42
2023-05-12T10:55:52.578Z,1010.41
2023-05-12T10:56:52.625Z,1010.43
2023-05-12T10:57:52.712Z,1010.30
2023-05-12T10:58:52.627Z,1010.31
2023-05-12T10:59:53.177Z,1010.38
2023-05-12T11:00:52.993Z,1010.36
2023-05-12T11:01:52.841Z,1010.35
2023-05-12T11:02:53.880Z,1010.32
2023-05-12T11:03:53.731Z,1010.41
2023-05-12T11:04:53.038Z,1010.51
2023-05-12T11:05:53.289Z,1010.32
2023-05-12T11:06:53.222Z,1010.29
2023-05-12T11:07:52.882Z,1010.29
2023-05-12T11:08:53.305Z,1010.35
2023-05-12T11:09:57.687Z,1010.36
2023-05-12T11:10:53.709Z,1010.34
2023-05-12T11:11:54.148Z,1010.30
2023-05-12T11:12:52.864Z,1010.37
2023-05-12T11:13:52.899Z,1010.40
2023-05-12T11:14:52.943Z,1010.45
2023-05-12T11:15:52.984Z,1010.41
2023-05-12T11:16:52.998Z,1010.42
2023-05-12T11:17:53.461Z,1010.45
2023-05-12T11:18:53.090Z,1010.43
2023-05-12T11:19:53.188Z,1010.36
2023-05-12T11:20:53.129Z,1010.40
2023-05-12T11:21:53.167Z,1010.44
2023-05-12T11:22:53.208Z,1010.38
2023-05-12T11:23:53.241Z,1010.39
2023-05-12T11:24:53.382Z,1010.40
2023-05-12T11:25:53.910Z,1010.38
2023-05-12T11:28:53.400Z,1010.28
2023-05-12T11:29:54.128Z,1010.32
2023-05-12T11:30:55.189Z,1010.37
2023-05-12T11:31:53.523Z,1010.40
2023-05-12T11:32:53.538Z,1010.40
2023-05-12T11:34:04.516Z,1010.45
2023-05-12T11:34:53.600Z,1010.48
2023-05-12T11:35:53.629Z,1010.45
2023-05-12T11:36:53.638Z,1010.38
2023-05-12T11:37:53.680Z,1010.35
2023-05-12T11:38:53.729Z,1010.30
2023-05-12T11:39:54.085Z,1010.23
2023-05-12T11:40:53.776Z,1010.27
2023-05-12T11:41:59.522Z,1010.25
2023-05-12T11:42:53.841Z,1010.30
2023-05-12T11:43:53.869Z,1010.32
2023-05-12T11:44:53.907Z,1010.33
2023-05-12T11:45:53.967Z,1010.26
2023-05-12T11:46:53.967Z,1010.32
2023-05-12T11:47:54.035Z,1010.42
2023-05-12T11:48:54.033Z,1010.40
2023-05-12T11:49:54.063Z,1010.38
2023-05-12T11:50:54.143Z,1010.37
2023-05-12T11:51:54.182Z,1010.35
2023-05-12T11:52:54.179Z,1010.33
2023-05-12T11:53:54.192Z,1010.31
2023-05-12T11:54:54.228Z,1010.36
2023-05-12T11:55:54.258Z,1010.34
2023-05-12T11:56:54.317Z,1010.31
2023-05-12T11:57:54.325Z,1010.32
2023-05-12T11:58:54.357Z,1010.37
2023-05-12T11:59:54.405Z,1010.36
2023-05-12T12:00:54.492Z,1010.35
2023-05-12T12:01:54.456Z,1010.37
2023-05-12T12:02:54.552Z,1010.32
2023-05-12T12:03:54.626Z,1010.34
2023-05-12T12:04:54.558Z,1010.33
2023-05-12T12:05:54.587Z,1010.32
2023-05-12T12:06:54.623Z,1010.29
2023-05-12T12:07:54.698Z,1010.30
2023-05-12T12:08:54.687Z,1010.33
2023-05-12T12:09:54.718Z,1010.31
2023-05-12T12:10:57.378Z,1010.28
2023-05-12T12:12:54.815Z,1010.28
2023-05-12T12:13:54.849Z,1010.27
2023-05-12T12:14:54.881Z,1010.33
2023-05-12T12:15:54.970Z,1010.32
2023-05-12T12:16:54.948Z,1010.41
2023-05-12T12:17:55.060Z,1010.41
2023-05-12T12:18:55.073Z,1010.36
2023-05-12T12:19:55.252Z,1010.45
2023-05-12T12:20:55.077Z,1010.46
2023-05-12T12:21:55.117Z,1010.40
2023-05-12T12:22:55.146Z,1010.43
2023-05-12T12:23:55.219Z,1010.41
2023-05-12T12:24:55.207Z,1010.39
2023-05-12T12:25:55.243Z,1010.43
2023-05-12T12:26:55.270Z,1010.44
2023-05-12T12:27:55.307Z,1010.43
2023-05-12T12:28:55.351Z,1010.38
2023-05-12T12:29:55.368Z,1010.45
2023-05-12T12:30:55.423Z,1010.43
2023-05-12T12:31:55.437Z,1010.43
2023-05-12T12:32:55.544Z,1010.40
2023-05-12T12:33:56.312Z,1010.45
2023-05-12T12:34:55.533Z,1010.47
2023-05-12T12:35:55.565Z,1010.52
2023-05-12T12:36:55.595Z,1010.51
2023-05-12T12:37:55.637Z,1010.55
2023-05-12T12:38:55.665Z,1010.45
2023-05-12T12:39:55.808Z,1010.44
2023-05-12T12:40:58.348Z,1010.44
2023-05-12T12:41:55.758Z,1010.47
2023-05-12T12:42:55.789Z,1010.49
2023-05-12T12:43:55.824Z,1010.47
2023-05-12T12:44:55.853Z,1010.50
2023-05-12T12:45:55.901Z,1010.55
2023-05-12T12:46:55.950Z,1010.47
2023-05-12T12:47:56.023Z,1010.54
2023-05-12T12:48:56.137Z,1010.52
2023-05-12T12:49:56.019Z,1010.54
2023-05-12T12:50:56.059Z,1010.48
2023-05-12T12:51:56.087Z,1010.46
2023-05-12T12:52:56.120Z,1010.50
2023-05-12T12:53:56.152Z,1010.48
2023-05-12T12:54:56.182Z,1010.47
2023-05-12T12:55:56.247Z,1010.49
2023-05-12T12:56:56.244Z,1010.53
2023-05-12T12:57:59.912Z,1010.45
2023-05-12T12:58:56.319Z,1010.44
2023-05-12T12:59:56.351Z,1010.44
2023-05-12T13:00:56.419Z,1010.41
2023-05-12T13:01:56.433Z,1010.39
2023-05-12T13:02:56.711Z,1010.37
2023-05-12T13:04:00.321Z,1010.36
2023-05-12T13:05:56.561Z,1010.33
2023-05-12T13:06:56.568Z,1010.38
2023-05-12T13:07:56.806Z,1010.32
2023-05-12T13:08:56.713Z,1010.35
2023-05-12T13:09:56.984Z,1010.35
2023-05-12T13:11:56.759Z,1010.39
2023-05-12T13:13:39.325Z,1010.38
2023-05-12T13:14:39.360Z,1010.41
2023-05-12T13:15:39.388Z,1010.41
2023-05-12T13:16:39.444Z,1010.42
2023-05-12T13:17:39.506Z,1010.41
2023-05-12T13:18:39.533Z,1010.39
2023-05-12T13:19:39.532Z,1010.41
2023-05-12T13:20:39.564Z,1010.42
2023-05-12T13:21:39.582Z,1010.48
2023-05-12T13:22:39.612Z,1010.47
2023-05-12T13:23:39.846Z,1010.42
2023-05-12T13:24:39.713Z,1010.43
2023-05-12T13:25:39.911Z,1010.37
2023-05-12T13:26:39.776Z,1010.41
2023-05-12T13:27:39.793Z,1010.40
2023-05-12T13:28:39.805Z,1010.38
2023-05-12T13:29:39.838Z,1010.39
2023-05-12T13:30:39.884Z,1010.39
2023-05-12T13:34:15.809Z,1010.36
2023-05-12T13:35:15.850Z,1010.39
2023-05-12T13:36:15.873Z,1010.41
2023-05-12T13:37:15.902Z,1010.33
2023-05-12T13:38:15.941Z,1010.36
2023-05-12T13:39:17.292Z,1010.36
2023-05-12T13:40:16.000Z,1010.41
2023-05-12T13:41:16.065Z,1010.37
2023-05-12T13:42:16.066Z,1010.38
2023-05-12T13:43:16.153Z,1010.41
2023-05-12T13:44:16.127Z,1010.36
2023-05-12T13:45:17.232Z,1010.39
2023-05-12T13:46:16.245Z,1010.40
2023-05-12T13:47:16.250Z,1010.38
2023-05-12T13:49:16.306Z,1010.40
2023-05-12T13:51:16.368Z,1010.53
2023-05-12T13:52:16.409Z,1010.48
2023-05-12T13:53:16.415Z,1010.48
2023-05-12T13:54:16.445Z,1010.46
2023-05-12T13:55:21.412Z,1010.47
2023-05-12T13:56:16.517Z,1010.46
2023-05-12T13:57:16.594Z,1010.40
2023-05-12T13:58:16.599Z,1010.37
2023-05-12T13:59:16.619Z,1010.42
2023-05-12T14:00:16.660Z,1010.41
2023-05-12T14:01:16.742Z,1010.38
2023-05-12T14:02:16.702Z,1010.41
2023-05-12T14:04:16.763Z,1010.46
2023-05-12T14:05:16.840Z,1010.40
2023-05-12T14:06:16.830Z,1010.43
2023-05-12T14:07:16.869Z,1010.45
2023-05-12T14:08:16.907Z,1010.43
2023-05-12T14:09:16.946Z,1010.42
2023-05-12T14:10:16.955Z,1010.40
2023-05-12T14:11:16.999Z,1010.42
2023-05-12T14:12:17.033Z,1010.36
2023-05-12T14:13:17.059Z,1010.42
2023-05-12T14:14:17.097Z,1010.45
2023-05-12T14:15:24.094Z,1010.45
2023-05-12T14:16:17.478Z,1010.46
2023-05-12T14:17:17.207Z,1010.47
2023-05-12T14:18:17.416Z,1010.50
2023-05-12T14:19:17.339Z,1010.46
2023-05-12T14:20:17.594Z,1010.44
2023-05-12T14:21:17.303Z,1010.44
2023-05-12T14:22:25.438Z,1010.44
2023-05-12T14:23:17.403Z,1010.46
2023-05-12T14:24:17.407Z,1010.45
2023-05-12T14:25:17.444Z,1010.50
2023-05-12T14:26:17.469Z,1010.49
2023-05-12T14:27:17.506Z,1010.51
2023-05-12T14:28:17.800Z,1010.55
2023-05-12T14:29:17.882Z,1010.45
2023-05-12T14:30:17.609Z,1010.54
2023-05-12T14:31:17.701Z,1010.51
2023-05-12T14:32:17.671Z,1010.50
2023-05-12T14:33:18.004Z,1010.53
2023-05-12T14:34:17.930Z,1010.52
2023-05-12T14:35:17.758Z,1010.50
2023-05-12T14:36:18.001Z,1010.52
2023-05-12T14:37:18.026Z,1010.57
2023-05-12T14:38:17.863Z,1010.57
2023-05-12T14:39:17.886Z,1010.56
2023-05-12T14:40:18.123Z,1010.52
2023-05-12T14:41:18.155Z,1010.55
2023-05-12T14:42:17.976Z,1010.60
2023-05-12T14:43:18.015Z,1010.56
2023-05-12T14:45:18.496Z,1010.57
2023-05-12T14:46:18.705Z,1010.52
2023-05-12T14:47:18.161Z,1010.55
2023-05-12T14:48:18.163Z,1010.57
2023-05-12T14:49:18.212Z,1010.57
2023-05-12T14:50:18.437Z,1010.58
2023-05-12T14:51:18.276Z,1010.60
2023-05-12T14:52:18.304Z,1010.59
2023-05-12T14:53:18.333Z,1010.61
2023-05-12T14:55:18.467Z,1010.60
2023-05-12T14:56:18.643Z,1010.58
2023-05-12T14:57:18.477Z,1010.57
2023-05-12T14:58:18.496Z,1010.59
2023-05-12T14:59:18.821Z,1010.60
2023-05-12T15:01:18.991Z,1010.59
2023-05-12T15:02:18.698Z,1010.61
2023-05-12T15:03:18.763Z,1010.62
2023-05-12T15:04:18.696Z,1010.60
2023-05-12T15:05:18.830Z,1010.60
2023-05-12T15:06:18.947Z,1010.59
2023-05-12T15:07:18.780Z,1010.69
2023-05-12T15:08:19.012Z,1010.64
2023-05-12T15:09:18.857Z,1010.64
2023-05-12T15:10:19.076Z,1010.69
2023-05-12T15:11:18.909Z,1010.62
2023-05-12T15:12:19.732Z,1010.65
2023-05-12T15:13:18.955Z,1010.66
2023-05-12T15:14:18.995Z,1010.67
2023-05-12T15:15:19.211Z,1010.64
2023-05-12T15:16:19.314Z,1010.69
2023-05-12T15:17:19.244Z,1010.69
2023-05-12T15:18:19.321Z,1010.68
2023-05-12T15:19:19.469Z,1010.71
2023-05-12T15:20:19.185Z,1010.73
2023-05-12T15:21:19.224Z,1010.78
2023-05-12T15:22:19.236Z,1010.81
2023-05-12T15:24:19.317Z,1010.81
2023-05-12T15:25:19.924Z,1010.81
2023-05-12T15:26:32.111Z,1010.83
2023-05-12T15:28:19.639Z,1010.85
2023-05-12T15:29:19.483Z,1010.87
2023-05-12T15:31:19.546Z,1010.92
2023-05-12T15:32:19.549Z,1010.89
2023-05-12T15:33:19.576Z,1010.90
2023-05-12T15:34:19.613Z,1010.94
2023-05-12T15:35:20.124Z,1010.95
2023-05-12T15:36:19.699Z,1010.97
2023-05-12T15:37:19.704Z,1010.95
2023-05-12T15:38:19.738Z,1010.90
2023-05-12T15:39:21.079Z,1010.89
2023-05-12T15:40:20.017Z,1010.87
2023-05-12T15:41:19.843Z,1010.92
2023-05-12T15:42:26.291Z,1010.84
2023-05-12T15:43:19.906Z,1010.85
2023-05-12T15:44:19.939Z,1010.87
2023-05-12T15:45:20.168Z,1010.81
2023-05-12T15:46:20.358Z,1010.77
2023-05-12T15:47:20.018Z,1010.74
2023-05-12T15:48:20.118Z,1010.74
2023-05-12T15:49:20.083Z,1010.76
2023-05-12T15:50:20.116Z,1010.71
2023-05-12T15:51:20.170Z,1010.70